Peotone Weather
Peotone-Weather Station Historical Data
Daily Summary for September 9, 2019 Units:  English    Metric   Both
Daily Weekly Monthly Yearly Custom
  High: Low: Average:
Temperature: 41.5 °F 29.3 °F 35.4 °F
Dew Point: 37.4 °F 21 °F 27.4 °F
Humidity: 85% 67% 73%
Wind Speed: 26.9mph 6.8mph 16.1mph
Wind Gust: 44.8mph - -
Wind- - WSW
Pressure: 30.30 in 29.46 in -
Precipitation: 0.00 in    
Historical Graphs
 
 
Tabular Data for September 9, 2019
Time Temperature Dew Point Pressure Wind Wind Speed Wind Gust Humidity Rainfall Rate (Hourly) solar
23:04 41.5 °F 37.4 °F 29.46 in WSW 26.3 mph 44.8 mph 85% 0.00 in 0 W/m2
23:09 41 °F 36.6 °F 29.46 in WSW 24.6 mph 44.8 mph 84.1% 0.00 in 0 W/m2
23:14 40.4 °F 35.8 °F 29.47 in WSW 22.7 mph 42.5 mph 83.3% 0.00 in 0 W/m2
23:19 40.1 °F 35.3 °F 29.47 in WSW 23.3 mph 41.4 mph 83% 0.00 in 0 W/m2
23:24 39.7 °F 34.5 °F 29.48 in WSW 25.7 mph 42.5 mph 81.3% 0.00 in 0 W/m2
23:29 39.5 °F 33.6 °F 29.48 in WSW 26.9 mph 42.5 mph 79.4% 0.00 in 0 W/m2
23:34 39.2 °F 33.5 °F 29.49 in WSW 23.8 mph 41.4 mph 79.7% 0.00 in 0 W/m2
23:39 39 °F 33.4 °F 29.49 in WSW 20.7 mph 33.3 mph 80% 0.00 in 0 W/m2
23:44 38.9 °F 33.2 °F 29.50 in WSW 21.4 mph 34.5 mph 80% 0.00 in 0 W/m2
23:49 38.9 °F 33 °F 29.50 in WSW 26 mph 38 mph 79.3% 0.00 in 0 W/m2
23:54 38.8 °F 32.8 °F 29.50 in WSW 24.9 mph 42.5 mph 78.9% 0.00 in 0 W/m2
23:59 38.7 °F 32.4 °F 29.51 in WSW 25 mph 42.5 mph 78% 0.00 in 0 W/m2
00:04 38.4 °F 32.2 °F 29.51 in WSW 22.5 mph 35.6 mph 78% 0.00 in 0 W/m2
00:09 38.3 °F 32 °F 29.51 in WSW 23.4 mph 32.2 mph 78% 0.00 in 0 W/m2
00:14 38.1 °F 31.9 °F 29.52 in WSW 21.8 mph 33.3 mph 78.2% 0.00 in 0 W/m2
00:19 38 °F 32 °F 29.52 in WSW 20.5 mph 35.6 mph 79% 0.00 in 0 W/m2
00:24 37.9 °F 31.9 °F 29.53 in WSW 25.2 mph 35.6 mph 78.7% 0.00 in 0 W/m2
00:29 37.9 °F 31.7 °F 29.53 in WSW 20.5 mph 34.5 mph 78% 0.00 in 0 W/m2
00:34 37.9 °F 31.5 °F 29.54 in WSW 24.5 mph 39.1 mph 77.5% 0.00 in 0 W/m2
00:39 37.9 °F 31.4 °F 29.55 in WSW 20.9 mph 39.1 mph 77.3% 0.00 in 0 W/m2
00:44 37.8 °F 31.3 °F 29.55 in WSW 23.6 mph 41.4 mph 77.1% 0.00 in 0 W/m2
00:49 37.8 °F 31 °F 29.56 in WSW 21.8 mph 43.7 mph 76.1% 0.00 in 0 W/m2
00:54 37.7 °F 30.8 °F 29.56 in West 21.6 mph 43.7 mph 76% 0.00 in 0 W/m2
00:59 37.6 °F 30.7 °F 29.56 in West 21.6 mph 34.5 mph 76% 0.00 in 0 W/m2
01:04 37.6 °F 30.7 °F 29.57 in WSW 22.9 mph 38 mph 76% 0.00 in 0 W/m2
01:09 37.5 °F 30.6 °F 29.57 in WSW 19.6 mph 38 mph 76% 0.00 in 0 W/m2
01:14 37.5 °F 30.6 °F 29.58 in WSW 22.6 mph 35.6 mph 76% 0.00 in 0 W/m2
01:19 37.4 °F 30.5 °F 29.59 in WSW 21 mph 35.6 mph 76% 0.00 in 0 W/m2
01:24 37.3 °F 30.5 °F 29.59 in WSW 22 mph 35.6 mph 76% 0.00 in 0 W/m2
01:29 37.4 °F 30.5 °F 29.59 in WSW 21.6 mph 35.6 mph 76% 0.00 in 0 W/m2
01:34 37.4 °F 30.5 °F 29.60 in WSW 22.2 mph 36.8 mph 76% 0.00 in 0 W/m2
01:39 37.4 °F 30.5 °F 29.60 in WSW 22.1 mph 36.8 mph 75.8% 0.00 in 0 W/m2
01:44 37.3 °F 30.4 °F 29.60 in WSW 22.8 mph 41.4 mph 76% 0.00 in 0 W/m2
01:49 37.2 °F 30.4 °F 29.61 in WSW 22 mph 41.4 mph 76% 0.00 in 0 W/m2
01:54 37.2 °F 30.4 °F 29.62 in WSW 22.4 mph 32.2 mph 76% 0.00 in 0 W/m2
01:59 37.2 °F 30.3 °F 29.62 in WSW 22.8 mph 33.3 mph 76% 0.00 in 0 W/m2
03:04 37.1 °F 30.3 °F 29.62 in WSW 20.7 mph 33.3 mph 76% 0.00 in 0 W/m2
03:09 37 °F 30.2 °F 29.63 in WSW 25 mph 41.4 mph 76% 0.00 in 0 W/m2
03:14 37 °F 29.9 °F 29.63 in West 24.5 mph 41.4 mph 75.4% 0.00 in 0 W/m2
03:19 37 °F 29.9 °F 29.63 in West 23 mph 38 mph 75.4% 0.00 in 0 W/m2
03:24 36.9 °F 30 °F 29.63 in WSW 21.9 mph 40.2 mph 76% 0.00 in 0 W/m2
03:29 36.8 °F 30 °F 29.63 in WSW 24.1 mph 40.2 mph 76% 0.00 in 0 W/m2
03:34 36.8 °F 29.9 °F 29.64 in WSW 19.9 mph 35.6 mph 76% 0.00 in 0 W/m2
03:39 36.7 °F 29.9 °F 29.64 in WSW 21.4 mph 33.3 mph 76% 0.00 in 0 W/m2
03:44 36.6 °F 29.8 °F 29.64 in WSW 21.8 mph 32.2 mph 76% 0.00 in 0 W/m2
03:49 36.5 °F 29.7 °F 29.64 in WSW 22.5 mph 32.2 mph 76% 0.00 in 0 W/m2
03:54 36.5 °F 29.7 °F 29.64 in WSW 20.4 mph 32.2 mph 76% 0.00 in 0 W/m2
03:59 36.5 °F 29.6 °F 29.65 in WSW 18.2 mph 28.8 mph 76% 0.00 in 0 W/m2
04:04 36.4 °F 29.6 °F 29.65 in WSW 19 mph 28.8 mph 76% 0.00 in 0 W/m2
04:09 36.3 °F 29.5 °F 29.66 in WSW 19.2 mph 28.8 mph 76% 0.00 in 0 W/m2
04:14 36.3 °F 29.5 °F 29.66 in WSW 18.4 mph 27.6 mph 76% 0.00 in 0 W/m2
04:19 36.3 °F 29.4 °F 29.66 in WSW 18 mph 35.6 mph 76% 0.00 in 0 W/m2
04:24 36.2 °F 29.4 °F 29.66 in WSW 16.6 mph 35.6 mph 76% 0.00 in 0 W/m2
04:29 36.2 °F 29.4 °F 29.67 in WSW 19.3 mph 28.8 mph 76% 0.00 in 0 W/m2
04:34 36.2 °F 29.4 °F 29.67 in WSW 17.3 mph 28.8 mph 76% 0.00 in 0 W/m2
04:39 36.2 °F 29.4 °F 29.67 in WSW 17.7 mph 26.4 mph 76% 0.00 in 0 W/m2
04:44 36.1 °F 29.3 °F 29.68 in WSW 14.5 mph 26.4 mph 76% 0.00 in 0 W/m2
04:49 36.1 °F 29.3 °F 29.68 in WSW 16.5 mph 26.4 mph 76% 0.00 in 0 W/m2
04:54 36.1 °F 29.3 °F 29.68 in WSW 15.4 mph 27.6 mph 76% 0.00 in 0 W/m2
04:59 36 °F 29.2 °F 29.69 in WSW 16.8 mph 28.8 mph 76% 0.00 in 0 W/m2
05:04 36 °F 29.2 °F 29.70 in WSW 16.7 mph 28.8 mph 76% 0.00 in 0 W/m2
05:09 36 °F 29.2 °F 29.70 in WSW 14.6 mph 21.9 mph 76% 0.00 in 0 W/m2
05:14 36 °F 29.2 °F 29.71 in WSW 17.8 mph 27.6 mph 76% 0.00 in 0 W/m2
05:19 36 °F 29.2 °F 29.72 in WSW 17.3 mph 29.9 mph 76% 0.00 in 0 W/m2
05:24 36 °F 29 °F 29.72 in WSW 19 mph 32.2 mph 75.3% 0.00 in 0 W/m2
05:29 36 °F 29 °F 29.73 in WSW 17.1 mph 32.2 mph 75.5% 0.00 in 0 W/m2
05:34 36 °F 28.9 °F 29.73 in WSW 15.4 mph 25.3 mph 75.2% 0.00 in 0 W/m2
05:39 36 °F 28.8 °F 29.73 in WSW 16.8 mph 25.3 mph 75% 0.00 in 0 W/m2
05:44 35.9 °F 28.8 °F 29.74 in WSW 16.7 mph 27.6 mph 75% 0.00 in 0 W/m2
05:49 35.9 °F 28.8 °F 29.74 in WSW 17.1 mph 29.9 mph 75% 0.00 in 0 W/m2
05:54 35.9 °F 28.8 °F 29.75 in WSW 18 mph 29.9 mph 75% 0.00 in 0 W/m2
05:59 35.9 °F 28.7 °F 29.75 in WSW 19.2 mph 28.8 mph 75% 0.00 in 0 W/m2
06:04 35.8 °F 28.7 °F 29.75 in WSW 18.8 mph 31 mph 75% 0.00 in 0 W/m2
06:09 35.8 °F 28.7 °F 29.76 in WSW 17.4 mph 31 mph 75% 0.00 in 0 W/m2
06:14 35.7 °F 28.8 °F 29.76 in WSW 17.2 mph 27.6 mph 75.7% 0.00 in 0 W/m2
06:19 35.7 °F 28.9 °F 29.76 in WSW 16 mph 27.6 mph 76% 0.00 in 0 W/m2
06:24 35.6 °F 28.8 °F 29.76 in WSW 15.3 mph 25.3 mph 76% 0.00 in 0 W/m2
06:29 35.5 °F 28.7 °F 29.76 in WSW 18 mph 26.4 mph 76% 0.00 in 0 W/m2
06:34 35.5 °F 28.7 °F 29.77 in WSW 18.2 mph 31 mph 76% 0.00 in 0 W/m2
06:39 35.4 °F 28.6 °F 29.77 in WSW 15.2 mph 31 mph 76% 0.00 in 0 W/m2
06:44 35.4 °F 28.6 °F 29.77 in WSW 14.9 mph 21.9 mph 76% 0.00 in 0 W/m2
06:49 35.4 °F 28.6 °F 29.78 in WSW 14.8 mph 24.1 mph 76% 0.00 in 0 W/m2
06:54 35.4 °F 28.6 °F 29.78 in WSW 16.4 mph 24.1 mph 76% 0.00 in 0 W/m2
06:59 35.3 °F 28.5 °F 29.78 in WSW 16.6 mph 27.6 mph 76% 0.00 in 0 W/m2
07:04 35.3 °F 28.5 °F 29.79 in WSW 16.9 mph 27.6 mph 76% 0.00 in 0 W/m2
07:09 35.2 °F 28.5 °F 29.79 in WSW 16.7 mph 27.6 mph 76% 0.00 in 0 W/m2
07:14 35.2 °F 28.4 °F 29.79 in WSW 17.2 mph 27.6 mph 76% 0.00 in 0 W/m2
07:19 35.2 °F 28.4 °F 29.79 in WSW 15.5 mph 27.6 mph 76% 0.00 in 0 W/m2
07:24 35.2 °F 28.4 °F 29.79 in WSW 15.9 mph 26.4 mph 76% 0.00 in 0 W/m2
07:29 35.2 °F 28.5 °F 29.80 in WSW 16.7 mph 26.4 mph 76% 0.00 in 0 W/m2
07:34 35.2 °F 28.4 °F 29.80 in WSW 16.4 mph 25.3 mph 76% 0.00 in 5 W/m2
07:39 35.2 °F 28.4 °F 29.80 in WSW 17.1 mph 25.3 mph 76% 0.00 in 0 W/m2
07:44 35.1 °F 28.3 °F 29.80 in WSW 16.3 mph 25.3 mph 76% 0.00 in 5 W/m2
07:49 35.1 °F 28.3 °F 29.81 in WSW 16.3 mph 26.4 mph 76% 0.00 in 9 W/m2
07:54 35.1 °F 28.3 °F 29.81 in WSW 14.3 mph 26.4 mph 76% 0.00 in 7 W/m2
07:59 35.1 °F 28.3 °F 29.81 in WSW 14.4 mph 24.1 mph 76% 0.00 in 7 W/m2
08:04 35 °F 28.2 °F 29.82 in WSW 15.1 mph 24.1 mph 76% 0.00 in 9 W/m2
08:09 34.9 °F 28.1 °F 29.82 in WSW 15.9 mph 24.1 mph 76% 0.00 in 11 W/m2
08:14 34.9 °F 28.1 °F 29.83 in West 15.5 mph 27.6 mph 76% 0.00 in 14 W/m2
08:19 34.9 °F 27.8 °F 29.83 in West 20.9 mph 29.9 mph 74.9% 0.00 in 19 W/m2
08:24 35 °F 27.5 °F 29.84 in West 15.8 mph 29.9 mph 73.7% 0.00 in 21 W/m2
08:29 35.1 °F 27.3 °F 29.84 in WSW 14.1 mph 24.1 mph 73% 0.00 in 30 W/m2
08:34 35.1 °F 27.4 °F 29.84 in West 13.7 mph 24.1 mph 73.3% 0.00 in 28 W/m2
08:39 35.1 °F 27.3 °F 29.85 in WSW 14.3 mph 24.1 mph 73% 0.00 in 25 W/m2
08:44 35.2 °F 27.7 °F 29.85 in WSW 12.1 mph 20.7 mph 73.8% 0.00 in 39 W/m2
08:49 35 °F 27.9 °F 29.85 in WSW 15.3 mph 24.1 mph 74.8% 0.00 in 33 W/m2
08:54 34.9 °F 27.8 °F 29.85 in WSW 13.4 mph 24.1 mph 75% 0.00 in 39 W/m2
08:59 34.7 °F 27.6 °F 29.86 in WSW 14.7 mph 24.1 mph 75% 0.00 in 32 W/m2
09:04 34.6 °F 27.3 °F 29.86 in West 20.3 mph 34.5 mph 74.2% 0.00 in 33 W/m2
09:09 34.5 °F 26.9 °F 29.87 in West 22.5 mph 34.5 mph 73.2% 0.00 in 51 W/m2
09:14 34.5 °F 26.4 °F 29.87 in West 19.8 mph 32.2 mph 72% 0.00 in 65 W/m2
09:19 34.5 °F 26.4 °F 29.88 in West 20 mph 32.2 mph 72% 0.00 in 65 W/m2
09:24 34.5 °F 26.5 °F 29.88 in West 19.2 mph 32.2 mph 72.2% 0.00 in 62 W/m2
09:29 34.4 °F 26.7 °F 29.89 in West 17.9 mph 27.6 mph 73% 0.00 in 62 W/m2
09:34 34.5 °F 26.7 °F 29.89 in West 16.5 mph 28.8 mph 73% 0.00 in 77 W/m2
09:39 34.5 °F 26.8 °F 29.89 in WSW 13.4 mph 28.8 mph 73% 0.00 in 74 W/m2
09:44 34.6 °F 26.8 °F 29.90 in WSW 15.5 mph 24.1 mph 73% 0.00 in 62 W/m2
09:49 34.5 °F 27 °F 29.90 in WSW 17.3 mph 33.3 mph 73.9% 0.00 in 58 W/m2
09:54 34.4 °F 27 °F 29.91 in WSW 11.3 mph 33.3 mph 74% 0.00 in 51 W/m2
09:59 34.3 °F 27.1 °F 29.91 in WSW 13.7 mph 23 mph 74.8% 0.00 in 91 W/m2
10:04 34.2 °F 27 °F 29.92 in West 19.1 mph 25.3 mph 74.7% 0.00 in 127 W/m2
10:09 34.2 °F 26.4 °F 29.92 in West 17.4 mph 25.3 mph 72.9% 0.00 in 132 W/m2
10:14 34.2 °F 26.3 °F 29.93 in West 14.5 mph 26.4 mph 72.4% 0.00 in 128 W/m2
10:19 34.2 °F 26.1 °F 29.93 in West 13.4 mph 26.4 mph 72% 0.00 in 111 W/m2
10:24 34.3 °F 26.3 °F 29.93 in West 15.8 mph 26.4 mph 72.5% 0.00 in 121 W/m2
10:29 34.3 °F 26.2 °F 29.94 in West 14.2 mph 26.4 mph 72% 0.00 in 118 W/m2
10:34 34.4 °F 26.3 °F 29.94 in WSW 15 mph 21.9 mph 72% 0.00 in 141 W/m2
10:39 34.5 °F 26.4 °F 29.94 in WSW 14.9 mph 21.9 mph 72% 0.00 in 116 W/m2
10:44 34.5 °F 26.4 °F 29.94 in WSW 17.4 mph 32.2 mph 71.9% 0.00 in 144 W/m2
10:49 34.4 °F 26 °F 29.95 in WSW 16.8 mph 32.2 mph 71% 0.00 in 139 W/m2
10:54 34.3 °F 25.7 °F 29.95 in WSW 18.7 mph 28.8 mph 70.6% 0.00 in 132 W/m2
10:59 34.2 °F 25.7 °F 29.95 in WSW 15 mph 28.8 mph 70.8% 0.00 in 142 W/m2
11:04 34.2 °F 25.8 °F 29.96 in WSW 15.7 mph 28.8 mph 71% 0.00 in 142 W/m2
11:09 34.2 °F 25.7 °F 29.96 in WSW 15.4 mph 21.9 mph 71% 0.00 in 181 W/m2
11:14 34.1 °F 25.7 °F 29.97 in West 16.4 mph 26.4 mph 71% 0.00 in 149 W/m2
11:19 34 °F 25.6 °F 29.97 in West 15.9 mph 26.4 mph 71% 0.00 in 229 W/m2
11:24 34.1 °F 25.7 °F 29.98 in West 13.6 mph 24.1 mph 71% 0.00 in 139 W/m2
11:29 34.1 °F 25.7 °F 29.98 in WSW 17.5 mph 26.4 mph 71% 0.00 in 146 W/m2
11:34 33.9 °F 25.5 °F 29.98 in WSW 15.7 mph 26.4 mph 71% 0.00 in 244 W/m2
11:39 33.9 °F 25.5 °F 29.98 in West 15.4 mph 25.3 mph 71% 0.00 in 287 W/m2
11:44 34.2 °F 25.8 °F 29.99 in WSW 18 mph 28.8 mph 71.2% 0.00 in 336 W/m2
11:49 34.4 °F 25.5 °F 29.99 in WSW 19.4 mph 28.8 mph 69.8% 0.00 in 320 W/m2
11:54 34.3 °F 25.5 °F 30.00 in WSW 20.1 mph 27.6 mph 69.9% 0.00 in 320 W/m2
11:59 34.1 °F 25.6 °F 30.00 in West 17.5 mph 29.9 mph 70.9% 0.00 in 239 W/m2
12:04 33.8 °F 25.2 °F 30.00 in WSW 18.3 mph 29.9 mph 70.1% 0.00 in 357 W/m2
12:09 34 °F 25.2 °F 30.01 in WSW 19.1 mph 29.9 mph 70% 0.00 in 369 W/m2
12:14 34.2 °F 25.3 °F 30.01 in WSW 18.9 mph 29.9 mph 69.7% 0.00 in 322 W/m2
12:19 33.9 °F 24.9 °F 30.02 in West 18.6 mph 27.6 mph 69.3% 0.00 in 223 W/m2
12:24 33.8 °F 25 °F 30.02 in West 19.9 mph 31 mph 69.8% 0.00 in 332 W/m2
12:29 34.1 °F 25.4 °F 30.03 in WSW 18 mph 31 mph 70.2% 0.00 in 394 W/m2
12:34 34.5 °F 25.5 °F 30.03 in WSW 16.7 mph 25.3 mph 69.4% 0.00 in 381 W/m2
12:39 34.5 °F 25.7 °F 30.04 in WSW 17.6 mph 27.6 mph 70.1% 0.00 in 204 W/m2
12:44 34.1 °F 25.5 °F 30.04 in WSW 19 mph 29.9 mph 70.4% 0.00 in 278 W/m2
12:49 34 °F 25.2 °F 30.04 in WSW 20.4 mph 29.9 mph 69.6% 0.00 in 336 W/m2
12:54 34 °F 25.2 °F 30.05 in WSW 20.5 mph 32.2 mph 69.8% 0.00 in 415 W/m2
12:59 34.6 °F 26 °F 30.05 in West 18.5 mph 32.2 mph 70.4% 0.00 in 455 W/m2
13:04 35.1 °F 26.3 °F 30.05 in WSW 15.4 mph 29.9 mph 69.9% 0.00 in 329 W/m2
13:09 35.3 °F 26.4 °F 30.05 in WSW 13.7 mph 24.1 mph 69.5% 0.00 in 338 W/m2
13:14 35.4 °F 26.7 °F 30.05 in WSW 14.7 mph 27.6 mph 70.2% 0.00 in 350 W/m2
13:19 35.4 °F 26.9 °F 30.05 in WSW 16.7 mph 27.6 mph 70.8% 0.00 in 202 W/m2
13:24 35.3 °F 26.8 °F 30.05 in WSW 19 mph 27.6 mph 70.9% 0.00 in 218 W/m2
13:29 35.1 °F 26.4 °F 30.06 in WSW 17.7 mph 27.6 mph 70.1% 0.00 in 214 W/m2
13:34 35.2 °F 26.7 °F 30.06 in WSW 17.6 mph 26.4 mph 70.8% 0.00 in 279 W/m2
13:39 35.6 °F 27 °F 30.06 in WSW 19.4 mph 33.3 mph 70.6% 0.00 in 251 W/m2
13:44 35.7 °F 26.9 °F 30.06 in WSW 20.5 mph 33.3 mph 70.2% 0.00 in 248 W/m2
13:49 35.8 °F 27.2 °F 30.06 in WSW 16.5 mph 33.3 mph 70.9% 0.00 in 274 W/m2
13:54 36.1 °F 27.6 °F 30.06 in WSW 16.4 mph 27.6 mph 71% 0.00 in 299 W/m2
13:59 36.3 °F 27.5 °F 30.06 in West 17.1 mph 31 mph 70.2% 0.00 in 295 W/m2
14:04 36.4 °F 27.7 °F 30.06 in WSW 16.2 mph 31 mph 70.6% 0.00 in 364 W/m2
14:09 36.6 °F 27.7 °F 30.06 in West 16.5 mph 25.3 mph 69.8% 0.00 in 332 W/m2
14:14 36.8 °F 27.7 °F 30.07 in WSW 18.9 mph 25.3 mph 69.3% 0.00 in 974 W/m2
14:19 37.1 °F 27.6 °F 30.07 in WSW 18.5 mph 28.8 mph 68.3% 0.00 in 974 W/m2
14:24 37 °F 27.6 °F 30.07 in WSW 20.8 mph 29.9 mph 68.5% 0.00 in 417 W/m2
14:29 37.2 °F 27.7 °F 30.07 in West 18.9 mph 29.9 mph 68.2% 0.00 in 357 W/m2
14:34 37.7 °F 28.3 °F 30.08 in WSW 22.1 mph 29.9 mph 68.5% 0.00 in 287 W/m2
14:39 37.5 °F 28.3 °F 30.08 in WSW 16.9 mph 32.2 mph 68.9% 0.00 in 223 W/m2
14:44 37.1 °F 28.2 °F 30.08 in WSW 16.3 mph 32.2 mph 69.9% 0.00 in 253 W/m2
14:49 37.1 °F 28.2 °F 30.09 in West 18.5 mph 28.8 mph 70% 0.00 in 292 W/m2
14:54 37.2 °F 28.2 °F 30.09 in WSW 16.1 mph 28.8 mph 69.8% 0.00 in 311 W/m2
14:59 37.3 °F 27.8 °F 30.09 in WSW 17.9 mph 27.6 mph 68.2% 0.00 in 241 W/m2
15:04 37.4 °F 28.1 °F 30.10 in WSW 18.6 mph 29.9 mph 68.7% 0.00 in 206 W/m2
15:09 37.7 °F 28.2 °F 30.10 in WSW 17.7 mph 29.9 mph 68.3% 0.00 in 599 W/m2
15:14 38.2 °F 28.6 °F 30.10 in WSW 15.8 mph 25.3 mph 68% 0.00 in 364 W/m2
15:19 37.9 °F 28.6 °F 30.10 in WSW 17 mph 26.4 mph 68.7% 0.00 in 279 W/m2
15:24 38 °F 28.5 °F 30.11 in WSW 20.3 mph 33.3 mph 68.3% 0.00 in 274 W/m2
15:29 37.9 °F 28.3 °F 30.11 in WSW 19.7 mph 33.3 mph 68% 0.00 in 288 W/m2
15:34 38 °F 28.3 °F 30.11 in West 19.9 mph 34.5 mph 67.8% 0.00 in 288 W/m2
15:39 38.1 °F 28.5 °F 30.12 in WSW 20.9 mph 34.5 mph 68% 0.00 in 229 W/m2
15:44 37.9 °F 28.3 °F 30.12 in WSW 18.5 mph 28.8 mph 68% 0.00 in 218 W/m2
15:49 37.8 °F 28.4 °F 30.12 in WSW 17.2 mph 29.9 mph 68.4% 0.00 in 251 W/m2
15:54 38 °F 28.8 °F 30.12 in WSW 14.6 mph 29.9 mph 68.9% 0.00 in 271 W/m2
15:59 38.3 °F 28.4 °F 30.12 in WSW 19.5 mph 31 mph 67.3% 0.00 in 318 W/m2
16:04 38.3 °F 28.3 °F 30.13 in WSW 18 mph 31 mph 67% 0.00 in 246 W/m2
16:09 38.4 °F 28.4 °F 30.13 in WSW 18.2 mph 29.9 mph 67% 0.00 in 251 W/m2
16:14 38.4 °F 28.8 °F 30.13 in WSW 16.4 mph 28.8 mph 68% 0.00 in 230 W/m2
16:19 38.3 °F 28.7 °F 30.13 in WSW 15.9 mph 25.3 mph 68% 0.00 in 225 W/m2
16:24 38.2 °F 28.8 °F 30.14 in West 14.7 mph 25.3 mph 68.7% 0.00 in 297 W/m2
16:29 38.5 °F 28.8 °F 30.14 in WSW 18.2 mph 27.6 mph 67.9% 0.00 in 243 W/m2
16:34 38.5 °F 28.8 °F 30.14 in WSW 13.8 mph 27.6 mph 67.8% 0.00 in 202 W/m2
16:39 38.5 °F 29 °F 30.14 in WSW 15.2 mph 27.6 mph 68.1% 0.00 in 178 W/m2
16:44 38.6 °F 29.1 °F 30.15 in WSW 15.5 mph 27.6 mph 68.3% 0.00 in 192 W/m2
16:49 38.4 °F 28.7 °F 30.15 in WSW 16.9 mph 27.6 mph 67.8% 0.00 in 248 W/m2
16:54 38.3 °F 28.8 °F 30.15 in West 12.7 mph 27.6 mph 68.3% 0.00 in 153 W/m2
16:59 38.2 °F 28.7 °F 30.15 in WSW 14.4 mph 24.1 mph 68.4% 0.00 in 156 W/m2
17:04 38.3 °F 29 °F 30.15 in WSW 12.8 mph 24.1 mph 68.8% 0.00 in 197 W/m2
17:09 38.3 °F 28.8 °F 30.15 in WSW 15.9 mph 25.3 mph 68.3% 0.00 in 176 W/m2
17:14 38.3 °F 28.7 °F 30.15 in WSW 15.3 mph 25.3 mph 68% 0.00 in 200 W/m2
17:19 38.2 °F 28.6 °F 30.16 in WSW 15.9 mph 21.9 mph 68% 0.00 in 200 W/m2
17:24 38.1 °F 28.7 °F 30.16 in WSW 13.9 mph 21.9 mph 68.6% 0.00 in 139 W/m2
17:29 38.1 °F 28.9 °F 30.16 in West 13.5 mph 21.9 mph 69.1% 0.00 in 123 W/m2
17:34 38.2 °F 29 °F 30.16 in WSW 15.2 mph 24.1 mph 69.3% 0.00 in 120 W/m2
17:39 38.3 °F 28.6 °F 30.17 in West 17.8 mph 27.6 mph 68% 0.00 in 123 W/m2
17:44 38.3 °F 28.8 °F 30.17 in West 15.9 mph 27.6 mph 68.1% 0.00 in 114 W/m2
17:49 38.2 °F 28.9 °F 30.17 in WSW 12.1 mph 25.3 mph 69% 0.00 in 156 W/m2
17:54 38 °F 28.8 °F 30.17 in WSW 16.2 mph 23 mph 69% 0.00 in 118 W/m2
17:59 37.9 °F 28.7 °F 30.18 in WSW 13.9 mph 25.3 mph 69% 0.00 in 113 W/m2
18:04 37.8 °F 28.6 °F 30.18 in WSW 14.5 mph 25.3 mph 69% 0.00 in 113 W/m2
18:09 37.6 °F 28.6 °F 30.18 in WSW 14.4 mph 24.1 mph 69.6% 0.00 in 58 W/m2
18:14 37.5 °F 28.6 °F 30.19 in WSW 13.2 mph 24.1 mph 70% 0.00 in 42 W/m2
18:19 37.3 °F 28.5 °F 30.19 in WSW 14 mph 21.9 mph 70.3% 0.00 in 35 W/m2
18:24 37.1 °F 28.6 °F 30.19 in West 11.3 mph 21.9 mph 70.8% 0.00 in 33 W/m2
18:29 37 °F 28.4 °F 30.20 in West 9.9 mph 18.4 mph 70.8% 0.00 in 26 W/m2
18:34 36.9 °F 28.4 °F 30.20 in West 11 mph 18.4 mph 71% 0.00 in 21 W/m2
18:39 36.7 °F 28.3 °F 30.20 in West 9.5 mph 14.9 mph 71.2% 0.00 in 19 W/m2
18:44 36.5 °F 28.2 °F 30.20 in West 9.3 mph 14.9 mph 71.7% 0.00 in 12 W/m2
18:49 36.2 °F 27.8 °F 30.20 in West 10.5 mph 13.8 mph 71.2% 0.00 in 9 W/m2
18:54 35.9 °F 27.4 °F 30.21 in West 10.4 mph 14.9 mph 71% 0.00 in 5 W/m2
18:59 35.5 °F 27 °F 30.21 in West 8.9 mph 14.9 mph 70.8% 0.00 in 0 W/m2
19:04 35.1 °F 26.7 °F 30.21 in West 8.3 mph 13.8 mph 71% 0.00 in 0 W/m2
19:09 34.8 °F 26.4 °F 30.21 in West 8 mph 13.8 mph 71.3% 0.00 in 0 W/m2
19:14 34.5 °F 26.4 °F 30.22 in West 8.6 mph 11.5 mph 72% 0.00 in 0 W/m2
19:19 34.3 °F 26.4 °F 30.22 in WSW 7.1 mph 11.5 mph 72.8% 0.00 in 0 W/m2
19:24 34.1 °F 26.3 °F 30.22 in West 9.1 mph 12.6 mph 73% 0.00 in 0 W/m2
19:29 33.9 °F 26.1 °F 30.22 in West 9.2 mph 12.6 mph 73% 0.00 in 0 W/m2
19:34 33.7 °F 26 °F 30.23 in West 10.1 mph 16.1 mph 73% 0.00 in 0 W/m2
19:39 33.7 °F 25.8 °F 30.23 in West 11.9 mph 20.7 mph 72.5% 0.00 in 0 W/m2
19:44 33.7 °F 25.4 °F 30.23 in West 11.1 mph 20.7 mph 71.5% 0.00 in 0 W/m2
19:49 33.6 °F 25.2 °F 30.24 in West 10.7 mph 17.2 mph 71% 0.00 in 0 W/m2
19:54 33.5 °F 25.1 °F 30.24 in West 12.9 mph 21.9 mph 70.9% 0.00 in 0 W/m2
19:59 33.4 °F 24.7 °F 30.24 in West 12.7 mph 21.9 mph 70% 0.00 in 0 W/m2
20:04 33.4 °F 24.6 °F 30.24 in West 12.8 mph 20.7 mph 69.8% 0.00 in 0 W/m2
20:09 33.4 °F 24.4 °F 30.25 in West 12.3 mph 19.5 mph 69% 0.00 in 0 W/m2
20:14 33.4 °F 24.3 °F 30.25 in West 14.3 mph 24.1 mph 69% 0.00 in 0 W/m2
20:19 33.3 °F 23.9 °F 30.25 in West 11.8 mph 24.1 mph 68.2% 0.00 in 0 W/m2
20:24 33.1 °F 23.7 °F 30.24 in West 12 mph 19.5 mph 68% 0.00 in 0 W/m2
20:29 33 °F 23.6 °F 30.25 in West 11.9 mph 18.4 mph 68% 0.00 in 0 W/m2
20:34 32.8 °F 23.8 °F 30.25 in West 10.8 mph 18.4 mph 68.9% 0.00 in 0 W/m2
20:39 32.7 °F 23.3 °F 30.25 in West 13 mph 18.4 mph 68% 0.00 in 0 W/m2
20:44 32.5 °F 22.9 °F 30.25 in West 13.4 mph 19.5 mph 67.2% 0.00 in 0 W/m2
20:49 32.4 °F 22.7 °F 30.25 in West 13.2 mph 20.7 mph 67% 0.00 in 0 W/m2
20:54 32.3 °F 22.6 °F 30.25 in West 12 mph 20.7 mph 67% 0.00 in 0 W/m2
20:59 32.1 °F 22.4 °F 30.25 in West 12.7 mph 19.5 mph 67% 0.00 in 0 W/m2
21:04 32 °F 22.6 °F 30.25 in West 10.9 mph 19.5 mph 67.9% 0.00 in 0 W/m2
21:09 31.8 °F 22.5 °F 30.25 in West 12 mph 21.9 mph 68% 0.00 in 0 W/m2
21:14 31.7 °F 22.4 °F 30.25 in West 12.8 mph 21.9 mph 68% 0.00 in 0 W/m2
21:19 31.6 °F 22.4 °F 30.25 in West 10.3 mph 20.7 mph 68.2% 0.00 in 0 W/m2
21:24 31.5 °F 22.6 °F 30.25 in West 11.9 mph 16.1 mph 69% 0.00 in 0 W/m2
21:29 31.5 °F 22.5 °F 30.25 in West 11 mph 16.1 mph 69% 0.00 in 0 W/m2
21:34 31.4 °F 22.4 °F 30.25 in West 10 mph 16.1 mph 69% 0.00 in 0 W/m2
21:39 31.2 °F 22.5 °F 30.25 in West 11 mph 19.5 mph 69.6% 0.00 in 0 W/m2
21:44 31.1 °F 22.5 °F 30.25 in West 12.2 mph 19.5 mph 70% 0.00 in 0 W/m2
21:49 31.1 °F 22.3 °F 30.25 in West 10.5 mph 18.4 mph 69.7% 0.00 in 0 W/m2
21:54 31 °F 22.4 °F 30.26 in West 9.7 mph 16.1 mph 70% 0.00 in 0 W/m2
21:59 30.9 °F 22.3 °F 30.26 in West 10.3 mph 17.2 mph 70% 0.00 in 0 W/m2
22:04 30.8 °F 22.2 °F 30.26 in West 9.5 mph 17.2 mph 70% 0.00 in 0 W/m2
22:09 30.7 °F 22.1 °F 30.26 in West 9.2 mph 14.9 mph 70% 0.00 in 0 W/m2
22:14 30.6 °F 22.2 °F 30.27 in West 10.3 mph 14.9 mph 70.6% 0.00 in 0 W/m2
22:19 30.5 °F 22.2 °F 30.27 in West 8.1 mph 14.9 mph 71% 0.00 in 0 W/m2
22:24 30.4 °F 22.2 °F 30.27 in West 8.7 mph 14.9 mph 71% 0.00 in 0 W/m2
22:29 30.3 °F 22 °F 30.28 in West 7.4 mph 14.9 mph 71% 0.00 in 0 W/m2
22:34 30.2 °F 22 °F 30.28 in West 7.2 mph 11.5 mph 71% 0.00 in 0 W/m2
22:39 30.1 °F 21.9 °F 30.27 in West 6.8 mph 10.3 mph 71% 0.00 in 0 W/m2
22:44 30 °F 21.8 °F 30.27 in West 7.4 mph 10.3 mph 71% 0.00 in 0 W/m2
22:49 30 °F 21.8 °F 30.28 in West 7.9 mph 10.3 mph 71% 0.00 in 0 W/m2
22:54 30 °F 21.7 °F 30.28 in West 7.6 mph 10.3 mph 71% 0.00 in 0 W/m2
22:59 30 °F 21.7 °F 30.28 in West 8.5 mph 12.6 mph 71% 0.00 in 0 W/m2
23:04 29.9 °F 21.7 °F 30.29 in West 9.1 mph 14.9 mph 71% 0.00 in 0 W/m2
23:09 29.9 °F 21.7 °F 30.29 in West 8.5 mph 14.9 mph 71% 0.00 in 0 W/m2
23:14 29.9 °F 21.6 °F 30.29 in WSW 8.4 mph 13.8 mph 71% 0.00 in 0 W/m2
23:19 29.9 °F 21.6 °F 30.29 in West 8.1 mph 13.8 mph 71% 0.00 in 0 W/m2
23:24 29.8 °F 21.5 °F 30.29 in West 8.2 mph 12.6 mph 70.8% 0.00 in 0 W/m2
23:29 29.7 °F 21.5 °F 30.29 in West 8.6 mph 12.6 mph 71% 0.00 in 0 W/m2
23:34 29.6 °F 21.2 °F 30.29 in West 7.7 mph 13.8 mph 70.5% 0.00 in 0 W/m2
23:39 29.6 °F 21 °F 30.29 in West 7.7 mph 13.8 mph 70% 0.00 in 0 W/m2
23:44 29.5 °F 21.1 °F 30.29 in West 6.9 mph 11.5 mph 70.3% 0.00 in 0 W/m2
23:49 29.5 °F 21.2 °F 30.30 in West 8 mph 11.5 mph 71% 0.00 in 0 W/m2
23:54 29.3 °F 21.1 °F 30.30 in WSW 7.7 mph 11.5 mph 71% 0.00 in 0 W/m2
23:59 29.3 °F 21.4 °F 30.30 in West 8.4 mph 11.5 mph 71.9% 0.00 in 0 W/m2
Peotne Weather
Compliments of Weather Underground - 4 mb